createdAt,value
2023-03-07T00:01:58.705Z,57.47
2023-03-07T00:07:00.232Z,57.68
2023-03-07T00:12:01.615Z,57.97
2023-03-07T00:17:02.972Z,58.24
2023-03-07T00:22:04.459Z,58.43
2023-03-07T00:27:06.265Z,58.96
2023-03-07T00:32:07.720Z,59.41
2023-03-07T00:37:09.250Z,60.01
2023-03-07T00:42:10.578Z,60.15
2023-03-07T00:47:12.199Z,60.66
2023-03-07T00:52:13.524Z,61.01
2023-03-07T00:57:14.856Z,61.78
2023-03-07T01:02:16.331Z,62.56
2023-03-07T01:07:17.776Z,63.23
2023-03-07T01:12:19.115Z,62.84
2023-03-07T01:17:20.482Z,63.34
2023-03-07T01:22:21.798Z,63.77
2023-03-07T01:27:23.763Z,64.20
2023-03-07T01:32:25.286Z,64.66
2023-03-07T01:37:26.704Z,64.78
2023-03-07T01:42:31.449Z,65.16
2023-03-07T01:47:32.856Z,65.43
2023-03-07T01:52:41.658Z,65.58
2023-03-07T01:57:45.793Z,66.00
2023-03-07T02:02:53.598Z,66.21
2023-03-07T02:07:56.968Z,66.14
2023-03-07T02:12:58.363Z,66.39
2023-03-07T02:17:59.868Z,65.66
2023-03-07T02:23:01.968Z,66.24
2023-03-07T02:28:04.447Z,66.39
2023-03-07T02:33:05.805Z,66.57
2023-03-07T02:38:07.494Z,66.96
2023-03-07T02:43:09.620Z,67.08
2023-03-07T02:48:11.134Z,67.29
2023-03-07T02:53:12.454Z,67.12
2023-03-07T02:58:13.812Z,67.48
2023-03-07T03:03:15.230Z,67.84
2023-03-07T03:08:16.558Z,67.71
2023-03-07T03:13:17.900Z,67.57
2023-03-07T03:18:19.358Z,68.08
2023-03-07T03:23:21.071Z,68.06
2023-03-07T03:28:22.763Z,68.19
2023-03-07T03:33:24.095Z,67.92
2023-03-07T03:38:26.770Z,68.74
2023-03-07T03:43:28.122Z,68.82
2023-03-07T03:48:29.730Z,68.52
2023-03-07T03:53:33.331Z,68.78
2023-03-07T03:58:35.679Z,69.12
2023-03-07T04:03:43.316Z,69.44
2023-03-07T04:08:46.364Z,69.64
2023-03-07T04:13:47.776Z,69.29
2023-03-07T04:18:50.890Z,69.46
2023-03-07T04:23:55.494Z,69.79
2023-03-07T04:28:56.906Z,69.59
2023-03-07T04:33:58.602Z,69.37
2023-03-07T04:38:59.917Z,69.83
2023-03-07T04:44:01.380Z,69.16
2023-03-07T04:49:02.742Z,69.55
2023-03-07T04:54:04.169Z,69.59
2023-03-07T04:59:05.503Z,69.56
2023-03-07T05:04:06.863Z,69.75
2023-03-07T05:09:08.226Z,69.46
2023-03-07T05:14:09.571Z,69.25
2023-03-07T05:19:10.955Z,69.08
2023-03-07T05:24:12.296Z,69.35
2023-03-07T05:29:13.748Z,69.38
2023-03-07T05:34:15.945Z,69.29
2023-03-07T05:39:17.475Z,69.70
2023-03-07T05:44:19.620Z,69.12
2023-03-07T05:49:21.165Z,69.56
2023-03-07T05:54:22.597Z,69.97
2023-03-07T05:59:23.926Z,69.60
2023-03-07T06:04:25.339Z,68.75
2023-03-07T06:09:28.052Z,68.84
2023-03-07T06:14:31.194Z,69.32
2023-03-07T06:19:33.854Z,68.94
2023-03-07T06:24:35.204Z,68.35
2023-03-07T06:29:37.005Z,68.03
2023-03-07T06:34:38.372Z,68.48
2023-03-07T06:39:39.834Z,67.88
2023-03-07T06:44:43.760Z,67.41
2023-03-07T06:49:45.209Z,67.66
2023-03-07T06:54:46.733Z,67.85
2023-03-07T06:59:48.082Z,67.38
2023-03-07T07:04:49.505Z,67.57
2023-03-07T07:09:51.429Z,67.63
2023-03-07T07:14:52.818Z,67.07
2023-03-07T07:19:54.178Z,66.89
2023-03-07T07:24:55.571Z,67.15
2023-03-07T07:29:56.929Z,67.23
2023-03-07T07:34:58.326Z,66.60
2023-03-07T07:39:59.696Z,66.10
2023-03-07T07:45:01.351Z,66.61
2023-03-07T07:50:02.818Z,66.72
2023-03-07T07:55:04.477Z,66.35
2023-03-07T08:00:06.776Z,65.79
2023-03-07T08:05:12.594Z,65.75
2023-03-07T08:10:16.010Z,65.28
2023-03-07T08:15:19.378Z,65.71
2023-03-07T08:20:23.406Z,65.11
2023-03-07T08:25:25.584Z,64.15
2023-03-07T08:30:30.186Z,64.87
2023-03-07T08:35:32.266Z,64.29
2023-03-07T08:40:33.763Z,63.95
2023-03-07T08:45:35.130Z,63.96
2023-03-07T08:50:38.771Z,62.93
2023-03-07T08:55:40.110Z,62.71
2023-03-07T09:00:41.574Z,62.56
2023-03-07T09:05:42.960Z,62.44
2023-03-07T09:10:44.369Z,62.17
2023-03-07T09:15:45.924Z,60.94
2023-03-07T09:20:47.264Z,60.26
2023-03-07T09:25:48.627Z,60.69
2023-03-07T09:30:49.992Z,59.88
2023-03-07T09:35:51.460Z,58.98
2023-03-07T09:40:53.092Z,58.87
2023-03-07T09:46:13.105Z,57.84
2023-03-07T09:51:50.449Z,57.03
2023-03-07T09:56:55.498Z,56.88
2023-03-07T10:02:17.172Z,55.90
2023-03-07T10:07:23.227Z,55.37
2023-03-07T10:12:55.213Z,55.17
2023-03-07T10:18:12.116Z,54.97
2023-03-07T10:23:32.808Z,54.89
2023-03-07T10:28:37.096Z,54.21
2023-03-07T10:33:40.620Z,53.64
2023-03-07T10:39:06.426Z,53.23
2023-03-07T10:44:17.418Z,52.90
2023-03-07T10:49:25.087Z,52.34
2023-03-07T10:54:38.323Z,52.73
2023-03-07T10:59:45.195Z,51.85
2023-03-07T11:04:47.121Z,51.69
2023-03-07T11:09:49.260Z,51.10
2023-03-07T11:14:52.410Z,50.89
2023-03-07T11:19:57.976Z,50.24
2023-03-07T11:25:13.942Z,49.86
2023-03-07T11:30:21.936Z,49.63
2023-03-07T11:35:52.676Z,49.29
2023-03-07T11:41:07.969Z,49.20
2023-03-07T11:46:24.942Z,48.70
2023-03-07T11:51:53.468Z,48.43
2023-03-07T11:57:06.159Z,48.59
2023-03-07T12:02:46.659Z,48.08
2023-03-07T12:08:13.047Z,48.04
2023-03-07T12:13:43.447Z,48.14
2023-03-07T12:18:55.751Z,47.91
2023-03-07T12:24:03.201Z,47.88
2023-03-07T12:29:20.627Z,47.66
2023-03-07T12:34:46.008Z,47.61
2023-03-07T12:40:10.934Z,47.60
2023-03-07T12:45:26.064Z,47.43
2023-03-07T12:50:41.258Z,47.68
2023-03-07T12:55:50.449Z,47.51
2023-03-07T13:00:59.748Z,47.40
2023-03-07T13:06:01.511Z,47.49
2023-03-07T13:11:03.364Z,46.93
2023-03-07T13:16:05.643Z,46.77
2023-03-07T13:21:08.533Z,46.82
2023-03-07T13:26:11.827Z,46.67
2023-03-07T13:31:29.309Z,46.86
2023-03-07T13:36:38.654Z,46.86
2023-03-07T13:41:46.601Z,46.95
2023-03-07T13:46:48.830Z,47.13
2023-03-07T13:52:35.337Z,47.18
2023-03-07T13:57:39.022Z,47.50
2023-03-07T14:02:43.596Z,47.60
2023-03-07T14:07:51.355Z,47.64
2023-03-07T14:13:11.174Z,48.19
2023-03-07T14:18:35.072Z,48.11
2023-03-07T14:24:09.932Z,48.38
2023-03-07T14:29:26.038Z,48.52
2023-03-07T14:34:33.645Z,48.71
2023-03-07T14:39:53.525Z,48.53
2023-03-07T14:45:16.160Z,48.66
2023-03-07T14:50:23.315Z,49.04
2023-03-07T14:55:35.860Z,49.40
2023-03-07T15:00:37.258Z,49.62
2023-03-07T15:05:48.205Z,49.93
2023-03-07T15:10:57.667Z,50.05
2023-03-07T15:16:03.680Z,50.46
2023-03-07T15:21:07.445Z,50.37
2023-03-07T15:26:20.965Z,50.12
2023-03-07T15:31:23.065Z,50.65
2023-03-07T15:36:27.004Z,50.92
2023-03-07T15:41:37.153Z,50.82
2023-03-07T15:46:48.623Z,50.95
2023-03-07T15:51:54.275Z,51.20
2023-03-07T15:56:59.369Z,50.69
2023-03-07T16:02:34.896Z,51.02
2023-03-07T16:07:36.322Z,50.93
2023-03-07T16:12:45.982Z,51.02
2023-03-07T16:17:54.932Z,50.79
2023-03-07T16:22:56.483Z,50.42
2023-03-07T16:27:59.155Z,50.98
2023-03-07T16:33:00.520Z,50.66
2023-03-07T16:38:01.859Z,50.54
2023-03-07T16:43:03.326Z,50.72
2023-03-07T16:48:04.860Z,51.36
2023-03-07T16:53:06.331Z,51.18
2023-03-07T16:58:19.680Z,51.10
2023-03-07T17:03:21.675Z,50.82
2023-03-07T17:08:23.076Z,51.50
2023-03-07T17:13:24.476Z,51.74
2023-03-07T17:18:26.636Z,51.70
2023-03-07T17:23:28.057Z,51.47
2023-03-07T17:28:29.573Z,52.28
2023-03-07T17:33:31.000Z,51.84
2023-03-07T17:38:32.438Z,52.21
2023-03-07T17:43:34.029Z,52.81
2023-03-07T17:48:35.698Z,52.91
2023-03-07T17:53:38.329Z,53.30
2023-03-07T17:58:39.715Z,53.48
2023-03-07T18:03:48.751Z,53.09
2023-03-07T18:08:50.673Z,53.76
2023-03-07T18:13:52.082Z,54.00
2023-03-07T18:18:59.448Z,53.54
2023-03-07T18:24:03.067Z,54.14
2023-03-07T18:29:04.561Z,53.59
2023-03-07T18:34:06.116Z,53.82
2023-03-07T18:39:11.086Z,53.96
2023-03-07T18:44:12.484Z,54.19
2023-03-07T18:49:16.157Z,53.93
2023-03-07T18:54:17.895Z,54.16
2023-03-07T18:59:19.486Z,53.62
2023-03-07T19:04:20.867Z,53.57
2023-03-07T19:09:23.721Z,53.12
2023-03-07T19:14:26.438Z,53.59
2023-03-07T19:19:27.950Z,55.18
2023-03-07T19:24:29.444Z,55.44
2023-03-07T19:29:31.032Z,56.19
2023-03-07T19:34:32.439Z,55.88
2023-03-07T19:39:34.239Z,56.26
2023-03-07T19:44:35.808Z,56.82
2023-03-07T19:49:37.718Z,57.47
2023-03-07T19:54:40.650Z,57.42
2023-03-07T19:59:42.105Z,58.82
2023-03-07T20:04:43.545Z,60.47
2023-03-07T20:09:45.011Z,60.18
2023-03-07T20:14:46.632Z,61.19
2023-03-07T20:19:50.520Z,61.71
2023-03-07T20:24:52.358Z,61.91
2023-03-07T20:29:53.965Z,62.24
2023-03-07T20:34:57.637Z,62.10
2023-03-07T20:40:02.617Z,61.97
2023-03-07T20:45:05.659Z,62.24
2023-03-07T20:50:07.551Z,62.71
2023-03-07T20:55:09.210Z,62.77
2023-03-07T21:00:11.414Z,62.79
2023-03-07T21:05:12.837Z,62.94
2023-03-07T21:10:14.567Z,62.62
2023-03-07T21:15:16.058Z,63.80
2023-03-07T21:20:17.544Z,64.01
2023-03-07T21:25:18.951Z,65.18
2023-03-07T21:30:20.453Z,65.95
2023-03-07T21:35:21.848Z,65.23
2023-03-07T21:40:23.265Z,65.59
2023-03-07T21:45:25.749Z,64.97
2023-03-07T21:50:27.683Z,65.69
2023-03-07T21:55:29.089Z,64.91
2023-03-07T22:00:30.862Z,65.67
2023-03-07T22:05:32.278Z,65.38
2023-03-07T22:10:33.769Z,65.28
2023-03-07T22:15:35.211Z,65.13
2023-03-07T22:20:38.244Z,65.72
2023-03-07T22:25:39.691Z,66.18
2023-03-07T22:30:41.161Z,66.74
2023-03-07T22:35:42.660Z,66.94
2023-03-07T22:40:44.011Z,67.34
2023-03-07T22:45:50.643Z,66.73
2023-03-07T22:50:52.223Z,67.07
2023-03-07T22:55:53.723Z,67.31
2023-03-07T23:00:55.122Z,67.73
2023-03-07T23:05:59.635Z,67.33
2023-03-07T23:11:03.619Z,67.71
2023-03-07T23:16:16.479Z,67.77
2023-03-07T23:21:23.672Z,67.38
2023-03-07T23:26:28.031Z,67.60
2023-03-07T23:31:32.458Z,68.28
2023-03-07T23:36:34.519Z,68.08
2023-03-07T23:41:36.264Z,69.18
2023-03-07T23:46:37.968Z,69.35
2023-03-07T23:51:39.465Z,69.10
2023-03-07T23:56:40.826Z,69.17
